createdAt,value
2018-07-16T00:01:12.732Z,929.31
2018-07-16T00:02:44.300Z,929.27
2018-07-16T00:04:15.872Z,929.32
2018-07-16T00:05:47.643Z,929.42
2018-07-16T00:07:19.014Z,929.36
2018-07-16T00:08:50.586Z,929.41
2018-07-16T00:10:22.156Z,929.40
2018-07-16T00:11:53.828Z,929.42
2018-07-16T00:13:25.298Z,929.49
2018-07-16T00:14:56.870Z,929.47
2018-07-16T00:16:28.441Z,929.54
2018-07-16T00:18:00.112Z,929.55
2018-07-16T00:19:31.584Z,929.56
2018-07-16T00:21:03.154Z,929.58
2018-07-16T00:22:34.726Z,929.61
2018-07-16T00:24:06.397Z,929.64
2018-07-16T00:25:37.868Z,929.63
2018-07-16T00:27:09.447Z,929.64
2018-07-16T00:28:41.010Z,929.65
2018-07-16T00:30:12.682Z,929.72
2018-07-16T00:31:44.152Z,929.76
2018-07-16T00:33:15.724Z,929.79
2018-07-16T00:34:47.333Z,929.79
2018-07-16T00:36:18.866Z,929.83
2018-07-16T00:37:50.436Z,929.86
2018-07-16T00:39:22.257Z,929.92
2018-07-16T00:40:53.578Z,929.95
2018-07-16T00:42:25.350Z,929.91
2018-07-16T00:43:56.721Z,929.88
2018-07-16T00:45:28.292Z,929.93
2018-07-16T00:46:59.862Z,929.93
2018-07-16T00:48:31.433Z,929.96
2018-07-16T00:50:03.006Z,929.96
2018-07-16T00:51:34.576Z,930.01
2018-07-16T00:53:06.147Z,929.98
2018-07-16T00:54:37.717Z,929.97
2018-07-16T00:56:09.288Z,929.98
2018-07-16T00:57:40.859Z,929.95
2018-07-16T00:59:12.430Z,929.95
2018-07-16T01:00:44.101Z,929.97
2018-07-16T01:02:15.572Z,929.97
2018-07-16T01:03:47.143Z,929.99
2018-07-16T01:05:18.715Z,929.97
2018-07-16T01:06:50.286Z,930.01
2018-07-16T01:08:21.855Z,930.06
2018-07-16T01:09:53.426Z,930.06
2018-07-16T01:11:24.997Z,930.04
2018-07-16T01:12:56.669Z,930.10
2018-07-16T01:14:28.139Z,930.09
2018-07-16T01:15:59.709Z,930.08
2018-07-16T01:17:31.280Z,930.07
2018-07-16T01:19:02.951Z,930.13
2018-07-16T01:20:34.421Z,930.13
2018-07-16T01:22:05.993Z,930.13
2018-07-16T01:23:37.563Z,930.11
2018-07-16T01:25:09.133Z,930.14
2018-07-16T01:26:40.703Z,930.18
2018-07-16T01:28:12.274Z,930.17
2018-07-16T01:29:43.845Z,930.16
2018-07-16T01:31:15.416Z,930.20
2018-07-16T01:32:46.986Z,930.18
2018-07-16T01:34:18.557Z,930.14
2018-07-16T01:35:50.127Z,930.14
2018-07-16T01:37:21.898Z,930.15
2018-07-16T01:38:53.271Z,930.16
2018-07-16T01:40:24.839Z,930.17
2018-07-16T01:41:56.409Z,930.17
2018-07-16T01:43:27.980Z,930.18
2018-07-16T01:44:59.550Z,930.18
2018-07-16T01:46:31.121Z,930.16
2018-07-16T01:48:02.691Z,930.21
2018-07-16T01:49:34.261Z,930.19
2018-07-16T01:51:05.833Z,930.18
2018-07-16T01:52:37.402Z,930.15
2018-07-16T01:54:08.973Z,930.16
2018-07-16T01:55:40.643Z,930.17
2018-07-16T01:57:12.115Z,930.15
2018-07-16T01:58:43.684Z,930.17
2018-07-16T02:00:15.255Z,930.20
2018-07-16T02:01:46.826Z,930.22
2018-07-16T02:03:18.396Z,930.18
2018-07-16T02:04:49.965Z,930.17
2018-07-16T02:06:21.536Z,930.21
2018-07-16T02:07:53.357Z,930.18
2018-07-16T02:09:24.677Z,930.19
2018-07-16T02:10:56.247Z,930.22
2018-07-16T02:12:27.816Z,930.24
2018-07-16T02:13:59.487Z,930.24
2018-07-16T02:15:30.958Z,930.28
2018-07-16T02:17:02.528Z,930.26
2018-07-16T02:18:34.098Z,930.33
2018-07-16T02:20:05.667Z,930.34
2018-07-16T02:21:37.238Z,930.36
2018-07-16T02:23:08.807Z,930.34
2018-07-16T02:24:40.377Z,930.35
2018-07-16T02:26:11.948Z,930.38
2018-07-16T02:27:43.518Z,930.39
2018-07-16T02:29:15.094Z,930.39
2018-07-16T02:30:46.659Z,930.41
2018-07-16T02:32:18.490Z,930.39
2018-07-16T02:33:49.798Z,930.40
2018-07-16T02:35:21.369Z,930.42
2018-07-16T02:36:52.940Z,930.40
2018-07-16T02:38:24.766Z,930.39
2018-07-16T02:39:56.204Z,930.38
2018-07-16T02:41:27.648Z,930.36
2018-07-16T02:42:59.229Z,930.41
2018-07-16T02:44:30.795Z,930.44
2018-07-16T02:46:02.367Z,930.41
2018-07-16T02:47:33.928Z,930.41
2018-07-16T02:49:05.499Z,930.42
2018-07-16T02:50:37.170Z,930.39
2018-07-16T02:52:08.639Z,930.37
2018-07-16T02:53:40.210Z,930.44
2018-07-16T02:55:11.779Z,930.45
2018-07-16T02:56:43.349Z,930.47
2018-07-16T02:58:14.919Z,930.48
2018-07-16T02:59:46.491Z,930.46
2018-07-16T03:01:18.058Z,930.48
2018-07-16T03:02:49.730Z,930.46
2018-07-16T03:04:21.199Z,930.49
2018-07-16T03:05:52.768Z,930.53
2018-07-16T03:07:24.339Z,930.52
2018-07-16T03:08:56.262Z,930.55
2018-07-16T03:10:27.481Z,930.51
2018-07-16T03:11:59.048Z,930.52
2018-07-16T03:13:30.620Z,930.50
2018-07-16T03:15:02.189Z,930.50
2018-07-16T03:16:33.760Z,930.51
2018-07-16T03:18:05.467Z,930.54
2018-07-16T03:19:36.897Z,930.51
2018-07-16T03:21:08.467Z,930.51
2018-07-16T03:22:40.040Z,930.54
2018-07-16T03:24:11.617Z,930.52
2018-07-16T03:25:43.176Z,930.57
2018-07-16T03:27:14.851Z,930.58
2018-07-16T03:28:46.316Z,930.52
2018-07-16T03:30:17.885Z,930.53
2018-07-16T03:31:49.456Z,930.53
2018-07-16T03:33:21.124Z,930.56
2018-07-16T03:34:52.593Z,930.56
2018-07-16T03:36:24.163Z,930.56
2018-07-16T03:37:55.733Z,930.58
2018-07-16T03:39:27.553Z,930.51
2018-07-16T03:40:58.872Z,930.51
2018-07-16T03:42:30.442Z,930.54
2018-07-16T03:44:02.011Z,930.52
2018-07-16T03:45:33.681Z,930.52
2018-07-16T03:47:05.151Z,930.49
2018-07-16T03:48:36.720Z,930.50
2018-07-16T03:50:08.290Z,930.46
2018-07-16T03:51:39.859Z,930.46
2018-07-16T03:53:11.428Z,930.47
2018-07-16T03:54:42.998Z,930.47
2018-07-16T03:56:15.119Z,930.44
2018-07-16T03:57:46.287Z,930.46
2018-07-16T03:59:17.706Z,930.47
2018-07-16T04:00:49.282Z,930.47
2018-07-16T04:02:20.846Z,930.44
2018-07-16T04:03:52.515Z,930.44
2018-07-16T04:05:23.984Z,930.46
2018-07-16T04:06:55.554Z,930.49
2018-07-16T04:08:27.124Z,930.46
2018-07-16T04:09:58.943Z,930.50
2018-07-16T04:11:30.261Z,930.45
2018-07-16T04:13:01.831Z,930.49
2018-07-16T04:14:33.401Z,930.49
2018-07-16T04:16:04.971Z,930.49
2018-07-16T04:17:36.539Z,930.49
2018-07-16T04:19:08.108Z,930.43
2018-07-16T04:20:39.677Z,930.46
2018-07-16T04:22:11.447Z,930.43
2018-07-16T04:23:42.816Z,930.41
2018-07-16T04:25:14.385Z,930.43
2018-07-16T04:26:45.955Z,930.42
2018-07-16T04:28:17.524Z,930.40
2018-07-16T04:29:49.094Z,930.41
2018-07-16T04:31:20.665Z,930.43
2018-07-16T04:32:52.232Z,930.39
2018-07-16T04:34:23.901Z,930.46
2018-07-16T04:35:55.369Z,930.38
2018-07-16T04:37:26.939Z,930.41
2018-07-16T04:38:58.507Z,930.42
2018-07-16T04:40:30.427Z,930.39
2018-07-16T04:42:01.646Z,930.40
2018-07-16T04:43:33.215Z,930.40
2018-07-16T04:45:04.789Z,930.39
2018-07-16T04:46:36.354Z,930.40
2018-07-16T04:48:07.922Z,930.40
2018-07-16T04:49:39.491Z,930.41
2018-07-16T04:51:11.060Z,930.44
2018-07-16T04:52:42.628Z,930.41
2018-07-16T04:54:14.198Z,930.41
2018-07-16T04:55:45.767Z,930.42
2018-07-16T04:57:17.336Z,930.41
2018-07-16T04:58:49.005Z,930.35
2018-07-16T05:00:20.473Z,930.39
2018-07-16T05:01:52.043Z,930.43
2018-07-16T05:03:23.617Z,930.37
2018-07-16T05:04:55.181Z,930.36
2018-07-16T05:06:26.749Z,930.38
2018-07-16T05:07:58.319Z,930.37
2018-07-16T05:09:29.888Z,930.40
2018-07-16T05:11:01.460Z,930.39
2018-07-16T05:12:33.025Z,930.36
2018-07-16T05:14:04.594Z,930.35
2018-07-16T05:15:36.163Z,930.33
2018-07-16T05:17:07.832Z,930.39
2018-07-16T05:18:39.300Z,930.37
2018-07-16T05:20:10.873Z,930.40
2018-07-16T05:21:42.441Z,930.41
2018-07-16T05:23:14.007Z,930.36
2018-07-16T05:24:45.576Z,930.38
2018-07-16T05:26:17.149Z,930.38
2018-07-16T05:27:48.713Z,930.36
2018-07-16T05:29:20.282Z,930.41
2018-07-16T05:30:51.853Z,930.32
2018-07-16T05:32:23.635Z,930.37
2018-07-16T05:33:54.989Z,930.34
2018-07-16T05:35:27.009Z,930.31
2018-07-16T05:36:58.127Z,930.30
2018-07-16T05:38:29.695Z,930.34
2018-07-16T05:40:01.266Z,930.32
2018-07-16T05:41:32.832Z,930.28
2018-07-16T05:43:04.402Z,930.28
2018-07-16T05:44:35.971Z,930.34
2018-07-16T05:46:07.539Z,930.34
2018-07-16T05:47:39.109Z,930.33
2018-07-16T05:49:10.677Z,930.31
2018-07-16T05:50:42.245Z,930.33
2018-07-16T05:52:13.814Z,930.34
2018-07-16T05:53:45.483Z,930.35
2018-07-16T05:55:16.951Z,930.35
2018-07-16T05:56:48.520Z,930.37
2018-07-16T05:58:20.188Z,930.34
2018-07-16T05:59:51.658Z,930.33
2018-07-16T06:01:23.230Z,930.33
2018-07-16T06:02:54.795Z,930.32
2018-07-16T06:04:26.367Z,930.27
2018-07-16T06:05:58.033Z,930.26
2018-07-16T06:07:29.501Z,930.29
2018-07-16T06:09:01.070Z,930.22
2018-07-16T06:10:32.638Z,930.22
2018-07-16T06:12:04.558Z,930.19
2018-07-16T06:13:35.776Z,930.23
2018-07-16T06:15:07.345Z,930.22
2018-07-16T06:16:38.918Z,930.21
2018-07-16T06:18:10.481Z,930.19
2018-07-16T06:19:42.050Z,930.19
2018-07-16T06:21:13.621Z,930.22
2018-07-16T06:22:45.187Z,930.22
2018-07-16T06:24:16.906Z,930.15
2018-07-16T06:25:48.325Z,930.15
2018-07-16T06:27:19.893Z,930.15
2018-07-16T06:28:51.461Z,930.12
2018-07-16T06:30:23.129Z,930.11
2018-07-16T06:31:54.598Z,930.17
2018-07-16T06:33:26.166Z,930.11
2018-07-16T06:34:57.735Z,930.03
2018-07-16T06:36:29.404Z,930.06
2018-07-16T06:38:00.871Z,930.01
2018-07-16T06:39:32.494Z,930.05
2018-07-16T06:41:04.080Z,930.05
2018-07-16T06:42:35.826Z,929.99
2018-07-16T06:44:07.144Z,929.99
2018-07-16T06:45:38.713Z,930.03
2018-07-16T06:47:10.281Z,930.05
2018-07-16T06:48:41.950Z,930.03
2018-07-16T06:50:13.420Z,930.02
2018-07-16T06:51:45.056Z,930.08
2018-07-16T06:53:16.624Z,930.08
2018-07-16T06:54:48.394Z,930.11
2018-07-16T06:56:19.762Z,930.06
2018-07-16T06:57:51.333Z,930.05
2018-07-16T06:59:22.898Z,930.07
2018-07-16T07:00:54.466Z,930.07
2018-07-16T07:02:26.069Z,930.07
2018-07-16T07:03:57.548Z,930.08
2018-07-16T07:05:29.117Z,930.10
2018-07-16T07:07:00.785Z,930.03
2018-07-16T07:08:32.253Z,929.99
2018-07-16T07:10:03.834Z,929.95
2018-07-16T07:11:35.391Z,929.93
2018-07-16T07:13:07.208Z,929.95
2018-07-16T07:14:38.526Z,929.94
2018-07-16T07:16:10.094Z,929.92
2018-07-16T07:17:41.662Z,929.93
2018-07-16T07:19:13.230Z,929.92
2018-07-16T07:20:44.798Z,929.91
2018-07-16T07:22:16.366Z,929.92
2018-07-16T07:23:47.934Z,929.92
2018-07-16T07:25:19.891Z,929.96
2018-07-16T07:26:51.071Z,929.91
2018-07-16T07:28:22.640Z,929.93
2018-07-16T07:29:54.208Z,929.92
2018-07-16T07:31:25.777Z,929.92
2018-07-16T07:32:57.344Z,929.95
2018-07-16T07:34:28.913Z,929.95
2018-07-16T07:36:00.506Z,929.96
2018-07-16T07:37:32.149Z,929.98
2018-07-16T07:39:03.617Z,929.93
2018-07-16T07:40:35.187Z,929.96
2018-07-16T07:42:06.757Z,929.89
2018-07-16T07:43:38.673Z,929.95
2018-07-16T07:45:09.890Z,929.89
2018-07-16T07:46:41.460Z,929.86
2018-07-16T07:48:13.027Z,929.89
2018-07-16T07:49:44.599Z,929.87
2018-07-16T07:51:16.164Z,929.87
2018-07-16T07:52:47.746Z,929.87
2018-07-16T07:54:19.461Z,929.84
2018-07-16T07:55:51.018Z,929.85
2018-07-16T07:57:22.436Z,929.83
2018-07-16T07:58:54.005Z,929.82
2018-07-16T08:00:25.573Z,929.80
2018-07-16T08:01:57.241Z,929.76
2018-07-16T08:03:28.785Z,929.79
2018-07-16T08:05:00.278Z,929.75
2018-07-16T08:06:31.845Z,929.77
2018-07-16T08:08:03.513Z,929.71
2018-07-16T08:09:34.980Z,929.72
2018-07-16T08:11:06.552Z,929.76
2018-07-16T08:12:38.118Z,929.76
2018-07-16T08:14:09.935Z,929.71
2018-07-16T08:15:41.252Z,929.75
2018-07-16T08:17:12.821Z,929.76
2018-07-16T08:18:44.391Z,929.72
2018-07-16T08:20:16.057Z,929.73
2018-07-16T08:21:47.525Z,929.74
2018-07-16T08:23:19.097Z,929.76
2018-07-16T08:24:50.669Z,929.77
2018-07-16T08:26:22.230Z,929.80
2018-07-16T08:27:53.798Z,929.83
2018-07-16T08:29:25.371Z,929.86
2018-07-16T08:30:56.935Z,929.90
2018-07-16T08:32:28.504Z,929.90
2018-07-16T08:34:00.073Z,929.94
2018-07-16T08:35:31.640Z,929.93
2018-07-16T08:37:03.209Z,929.92
2018-07-16T08:38:34.981Z,929.93
2018-07-16T08:40:06.347Z,929.95
2018-07-16T08:41:37.916Z,929.98
2018-07-16T08:43:09.483Z,930.00
2018-07-16T08:44:41.052Z,930.00
2018-07-16T08:46:12.673Z,929.99
2018-07-16T08:47:44.190Z,930.02
2018-07-16T08:49:15.758Z,930.07
2018-07-16T08:50:47.327Z,930.13
2018-07-16T08:52:18.896Z,930.06
2018-07-16T08:53:50.464Z,930.13
2018-07-16T08:55:22.032Z,930.15
2018-07-16T08:56:53.701Z,930.11
2018-07-16T08:58:25.169Z,930.10
2018-07-16T08:59:56.740Z,930.13
2018-07-16T09:01:28.305Z,930.14
2018-07-16T09:03:00.029Z,930.12
2018-07-16T09:04:31.442Z,930.15
2018-07-16T09:06:03.010Z,930.17
2018-07-16T09:07:34.578Z,930.24
2018-07-16T09:09:06.146Z,930.27
2018-07-16T09:10:37.715Z,930.30
2018-07-16T09:12:09.282Z,930.28
2018-07-16T09:13:41.011Z,930.33
2018-07-16T09:15:12.518Z,930.36
2018-07-16T09:16:44.054Z,930.39
2018-07-16T09:18:15.554Z,930.43
2018-07-16T09:19:47.125Z,930.46
2018-07-16T09:21:18.690Z,930.45
2018-07-16T09:22:50.257Z,930.46
2018-07-16T09:24:21.825Z,930.51
2018-07-16T09:25:53.393Z,930.51
2018-07-16T09:27:24.961Z,930.55
2018-07-16T09:28:56.539Z,930.52
2018-07-16T09:30:28.097Z,930.51
2018-07-16T09:31:59.665Z,930.55
2018-07-16T09:33:31.333Z,930.51
2018-07-16T09:35:02.805Z,930.50
2018-07-16T09:36:34.369Z,930.54
2018-07-16T09:38:05.938Z,930.50
2018-07-16T09:39:37.654Z,930.53
2018-07-16T09:41:09.072Z,930.59
2018-07-16T09:42:40.686Z,930.59
2018-07-16T09:44:12.207Z,930.62
2018-07-16T09:45:43.775Z,930.62
2018-07-16T09:47:15.343Z,930.61
2018-07-16T09:48:46.910Z,930.62
2018-07-16T09:50:18.640Z,930.66
2018-07-16T09:51:50.146Z,930.72
2018-07-16T09:53:21.715Z,930.70
2018-07-16T09:54:53.181Z,930.73
2018-07-16T09:56:24.915Z,930.74
2018-07-16T09:57:56.640Z,930.78
2018-07-16T09:59:27.884Z,930.77
2018-07-16T10:00:59.453Z,930.76
2018-07-16T10:02:31.020Z,930.81
2018-07-16T10:04:02.839Z,930.84
2018-07-16T10:07:06.453Z,930.84
2018-07-16T10:08:37.524Z,930.86
2018-07-16T10:10:08.959Z,930.79
2018-07-16T10:11:40.438Z,930.83
2018-07-16T10:13:11.996Z,930.88
2018-07-16T10:16:15.518Z,930.88
2018-07-16T10:17:46.703Z,930.90
2018-07-16T10:19:18.455Z,930.91
2018-07-16T10:20:49.842Z,930.91
2018-07-16T10:22:21.414Z,930.97
2018-07-16T10:23:52.980Z,931.01
2018-07-16T10:25:24.555Z,931.08
2018-07-16T10:26:56.348Z,931.08
2018-07-16T10:28:27.806Z,931.12
2018-07-16T10:31:30.835Z,931.10
2018-07-16T10:33:02.710Z,931.09
2018-07-16T10:36:05.578Z,931.14
2018-07-16T10:37:37.122Z,931.15
2018-07-16T10:39:08.843Z,931.14
2018-07-16T10:40:40.272Z,931.17
2018-07-16T10:43:44.248Z,931.20
2018-07-16T10:45:14.986Z,931.21
2018-07-16T10:48:18.184Z,931.24
2018-07-16T10:49:49.860Z,931.32
2018-07-16T10:51:21.283Z,931.33
2018-07-16T10:52:52.868Z,931.42
2018-07-16T10:54:24.579Z,931.45
2018-07-16T10:55:56.161Z,931.43
2018-07-16T10:57:27.733Z,931.47
2018-07-16T10:58:59.155Z,931.53
2018-07-16T11:00:31.261Z,931.53
2018-07-16T11:02:03.450Z,931.63
2018-07-16T11:03:34.189Z,931.61
2018-07-16T11:05:05.659Z,931.70
2018-07-16T11:06:37.031Z,931.68
2018-07-16T11:08:08.608Z,931.73
2018-07-16T11:09:40.719Z,931.72
2018-07-16T11:12:43.338Z,931.78
2018-07-16T11:15:47.159Z,931.79
2018-07-16T11:17:18.069Z,931.82
2018-07-16T11:20:21.476Z,931.85
2018-07-16T11:21:53.072Z,931.87
2018-07-16T11:26:27.738Z,931.83
2018-07-16T11:27:59.529Z,931.83
2018-07-16T11:31:02.468Z,931.95
2018-07-16T11:32:33.844Z,932.01
2018-07-16T11:34:06.447Z,931.98
2018-07-16T11:35:37.364Z,931.95
2018-07-16T11:37:08.881Z,932.00
2018-07-16T11:40:11.962Z,932.01
2018-07-16T11:41:43.531Z,932.03
2018-07-16T11:43:14.931Z,932.02
2018-07-16T11:46:18.479Z,932.08
2018-07-16T11:47:49.861Z,932.13
2018-07-16T11:49:21.219Z,932.12
2018-07-16T11:50:52.798Z,932.06
2018-07-16T11:52:24.412Z,932.08
2018-07-16T11:53:55.955Z,932.11
2018-07-16T11:55:27.737Z,932.09
2018-07-16T11:56:59.147Z,932.13
2018-07-16T11:58:32.211Z,932.16
2018-07-16T12:01:33.879Z,932.18
2018-07-16T12:04:37.012Z,932.26
2018-07-16T12:06:08.592Z,932.29
2018-07-16T12:07:40.221Z,932.30
2018-07-16T12:09:11.764Z,932.29
2018-07-16T12:10:43.333Z,932.32
2018-07-16T12:12:14.979Z,932.30
2018-07-16T12:15:18.073Z,932.33
2018-07-16T12:18:21.537Z,932.31
2018-07-16T12:19:52.814Z,932.37
2018-07-16T12:21:24.838Z,932.40
2018-07-16T12:22:55.976Z,932.38
2018-07-16T12:26:00.352Z,932.48
2018-07-16T12:27:30.776Z,932.49
2018-07-16T12:30:33.913Z,932.57
2018-07-16T12:32:05.769Z,932.59
2018-07-16T12:33:37.043Z,932.55
2018-07-16T12:35:08.755Z,932.57
2018-07-16T12:36:40.290Z,932.62
2018-07-16T12:38:12.088Z,932.62
2018-07-16T12:39:43.531Z,932.68
2018-07-16T12:41:15.692Z,932.63
2018-07-16T12:42:46.533Z,932.61
2018-07-16T12:44:18.110Z,932.67
2018-07-16T12:45:49.717Z,932.70
2018-07-16T12:47:21.276Z,932.73
2018-07-16T12:48:52.856Z,932.77
2018-07-16T12:50:24.503Z,932.74
2018-07-16T12:53:27.604Z,932.77
2018-07-16T12:56:30.867Z,932.78
2018-07-16T12:58:02.351Z,932.84
2018-07-16T12:59:34.135Z,932.79
2018-07-16T13:02:37.191Z,932.82
2018-07-16T13:04:08.890Z,932.87
2018-07-16T13:05:40.569Z,932.88
2018-07-16T13:07:11.870Z,932.88
2018-07-16T13:10:15.015Z,932.90
2018-07-16T13:11:46.615Z,932.91
2018-07-16T13:13:18.920Z,932.90
2018-07-16T13:17:53.617Z,932.94
2018-07-16T13:19:24.510Z,932.92
2018-07-16T13:20:56.092Z,932.88
2018-07-16T13:22:27.678Z,932.90
2018-07-16T13:25:30.869Z,932.84
2018-07-16T13:27:02.429Z,932.91
2018-07-16T13:28:34.029Z,933.00
2018-07-16T13:30:05.592Z,932.98
2018-07-16T13:31:37.258Z,932.95
2018-07-16T13:33:08.811Z,932.95
2018-07-16T13:34:41.214Z,932.91
2018-07-16T13:36:11.924Z,932.92
2018-07-16T13:37:43.921Z,932.90
2018-07-16T13:39:15.396Z,932.92
2018-07-16T13:40:46.674Z,932.87
2018-07-16T13:42:18.462Z,932.90
2018-07-16T13:43:49.842Z,932.86
2018-07-16T13:45:21.426Z,932.88
2018-07-16T13:46:53.141Z,932.86
2018-07-16T13:48:24.854Z,932.87
2018-07-16T13:49:56.176Z,932.82
2018-07-16T13:51:27.961Z,932.82
2018-07-16T13:53:00.044Z,932.83
2018-07-16T13:54:30.928Z,932.80
2018-07-16T13:56:02.637Z,932.79
2018-07-16T13:57:34.096Z,932.83
2018-07-16T13:59:05.685Z,932.84
2018-07-16T14:00:37.272Z,932.83
2018-07-16T14:02:08.861Z,932.85
2018-07-16T14:03:40.974Z,932.82
2018-07-16T14:05:12.013Z,932.82
2018-07-16T14:06:43.600Z,932.76
2018-07-16T14:09:46.765Z,932.72
2018-07-16T14:11:18.349Z,932.70
2018-07-16T14:12:49.993Z,932.68
2018-07-16T14:14:21.518Z,932.69
2018-07-16T14:15:53.204Z,932.66
2018-07-16T14:17:26.325Z,932.72
2018-07-16T14:18:56.441Z,932.70
2018-07-16T14:20:28.423Z,932.66
2018-07-16T14:21:59.671Z,932.67
2018-07-16T14:23:31.655Z,932.66
2018-07-16T14:25:02.700Z,932.66
2018-07-16T14:26:34.194Z,932.68
2018-07-16T14:28:05.921Z,932.64
2018-07-16T14:29:37.364Z,932.64
2018-07-16T14:31:08.953Z,932.63
2018-07-16T14:32:40.744Z,932.58
2018-07-16T14:34:12.219Z,932.58
2018-07-16T14:35:43.703Z,932.55
2018-07-16T14:37:15.292Z,932.52
2018-07-16T14:38:47.077Z,932.55
2018-07-16T14:40:18.610Z,932.53
2018-07-16T14:41:50.045Z,932.54
2018-07-16T14:43:21.629Z,932.57
2018-07-16T14:44:53.293Z,932.60
2018-07-16T14:46:25.339Z,932.55
2018-07-16T14:47:56.387Z,932.57
2018-07-16T14:49:28.174Z,932.54
2018-07-16T14:50:59.557Z,932.55
2018-07-16T14:52:31.548Z,932.55
2018-07-16T14:54:02.728Z,932.50
2018-07-16T14:55:34.519Z,932.56
2018-07-16T14:57:05.967Z,932.57
2018-07-16T14:58:37.584Z,932.56
2018-07-16T15:00:09.273Z,932.57
2018-07-16T15:01:41.194Z,932.57
2018-07-16T15:03:13.425Z,932.45
2018-07-16T15:04:44.186Z,932.37
2018-07-16T15:07:47.202Z,932.28
2018-07-16T15:09:18.583Z,932.18
2018-07-16T15:10:50.398Z,932.19
2018-07-16T15:12:21.803Z,932.11
2018-07-16T15:13:53.567Z,932.08
2018-07-16T15:15:24.924Z,932.06
2018-07-16T15:16:56.510Z,932.03
2018-07-16T15:18:28.096Z,932.04
2018-07-16T15:19:59.826Z,932.03
2018-07-16T15:23:03.392Z,932.10
2018-07-16T15:24:34.979Z,932.00
2018-07-16T15:26:06.440Z,931.94
2018-07-16T15:27:37.611Z,931.92
2018-07-16T15:29:09.358Z,931.98
2018-07-16T15:35:15.937Z,931.83
2018-07-16T15:38:18.711Z,931.80
2018-07-16T15:39:50.414Z,931.80
2018-07-16T15:41:21.942Z,931.81
2018-07-16T15:42:54.053Z,931.76
2018-07-16T15:44:25.263Z,931.70
2018-07-16T15:45:56.945Z,931.67
2018-07-16T15:47:29.854Z,931.67
2018-07-16T15:48:59.840Z,931.65
2018-07-16T15:52:02.985Z,931.61
2018-07-16T15:53:35.048Z,931.61
2018-07-16T15:55:06.270Z,931.55
2018-07-16T15:56:37.778Z,931.53
2018-07-16T15:58:09.479Z,931.53
2018-07-16T15:59:40.998Z,931.43
2018-07-16T16:01:12.555Z,931.49
2018-07-16T16:02:44.109Z,931.42
2018-07-16T16:04:15.887Z,931.40
2018-07-16T16:05:47.365Z,931.35
2018-07-16T16:08:50.711Z,931.33
2018-07-16T16:11:53.610Z,931.28
2018-07-16T16:13:25.399Z,931.26
2018-07-16T16:14:57.523Z,931.25
2018-07-16T16:16:28.435Z,931.23
2018-07-16T16:18:00.083Z,931.19
2018-07-16T16:19:31.543Z,931.18
2018-07-16T16:22:35.021Z,931.11
2018-07-16T16:25:38.401Z,931.08
2018-07-16T16:27:09.522Z,931.05
2018-07-16T16:28:41.268Z,931.05
2018-07-16T16:30:12.663Z,930.99
2018-07-16T16:31:44.239Z,930.95
2018-07-16T16:33:15.828Z,930.95
2018-07-16T16:36:19.010Z,930.97
2018-07-16T16:39:22.415Z,930.94
2018-07-16T16:40:53.966Z,930.89
2018-07-16T16:43:58.081Z,930.81
2018-07-16T16:45:28.740Z,930.80
2018-07-16T16:47:00.115Z,930.82
2018-07-16T16:48:32.055Z,930.79
2018-07-16T16:50:03.291Z,930.78
2018-07-16T16:51:35.193Z,930.73
2018-07-16T16:53:06.462Z,930.69
2018-07-16T16:54:38.051Z,930.63
2018-07-16T16:56:09.788Z,930.63
2018-07-16T16:57:41.288Z,930.62
2018-07-16T16:59:12.817Z,930.60
2018-07-16T17:00:44.404Z,930.57
2018-07-16T17:02:15.989Z,930.53
2018-07-16T17:05:19.617Z,930.54
2018-07-16T17:06:50.816Z,930.53
2018-07-16T17:08:22.361Z,930.56
2018-07-16T17:09:53.929Z,930.57
2018-07-16T17:12:57.593Z,930.51
2018-07-16T17:16:00.278Z,930.48
2018-07-16T17:17:31.863Z,930.49
2018-07-16T17:19:03.663Z,930.50
2018-07-16T17:22:06.835Z,930.45
2018-07-16T17:23:38.261Z,930.45
2018-07-16T17:25:10.537Z,930.41
2018-07-16T17:26:47.362Z,930.37
2018-07-16T17:28:13.214Z,930.36
2018-07-16T17:29:44.560Z,930.35
2018-07-16T17:31:17.093Z,930.31
2018-07-16T17:34:19.319Z,930.36
2018-07-16T17:35:50.905Z,930.34
2018-07-16T17:37:22.501Z,930.32
2018-07-16T17:38:54.079Z,930.35
2018-07-16T17:40:25.688Z,930.27
2018-07-16T17:41:57.312Z,930.32
2018-07-16T17:43:28.940Z,930.32
2018-07-16T17:45:00.425Z,930.30
2018-07-16T17:46:32.012Z,930.32
2018-07-16T17:49:35.193Z,930.32
2018-07-16T17:51:06.770Z,930.31
2018-07-16T17:52:38.356Z,930.37
2018-07-16T17:54:09.941Z,930.38
2018-07-16T17:55:41.555Z,930.34
2018-07-16T17:57:13.112Z,930.37
2018-07-16T17:58:44.733Z,930.37
2018-07-16T18:00:16.307Z,930.37
2018-07-16T18:01:47.974Z,930.36
2018-07-16T18:03:19.654Z,930.33
2018-07-16T18:04:51.037Z,930.31
2018-07-16T18:06:22.621Z,930.34
2018-07-16T18:07:54.208Z,930.31
2018-07-16T18:09:25.794Z,930.32
2018-07-16T18:10:57.376Z,930.28
2018-07-16T18:12:28.960Z,930.29
2018-07-16T18:14:00.545Z,930.36
2018-07-16T18:15:32.129Z,930.34
2018-07-16T18:17:03.714Z,930.34
2018-07-16T18:18:35.307Z,930.37
2018-07-16T18:20:06.985Z,930.35
2018-07-16T18:21:38.467Z,930.34
2018-07-16T18:23:10.053Z,930.40
2018-07-16T18:24:41.637Z,930.38
2018-07-16T18:26:13.221Z,930.36
2018-07-16T18:27:44.838Z,930.36
2018-07-16T18:29:16.390Z,930.33
2018-07-16T18:30:47.974Z,930.39
2018-07-16T18:32:19.558Z,930.39
2018-07-16T18:33:51.449Z,930.40
2018-07-16T18:35:22.733Z,930.41
2018-07-16T18:36:54.311Z,930.38
2018-07-16T18:38:26.166Z,930.33
2018-07-16T18:41:29.113Z,930.30
2018-07-16T18:43:00.851Z,930.31
2018-07-16T18:44:32.405Z,930.33
2018-07-16T18:46:03.815Z,930.32
2018-07-16T18:47:35.400Z,930.33
2018-07-16T18:49:06.985Z,930.37
2018-07-16T18:50:38.569Z,930.33
2018-07-16T18:52:10.468Z,930.34
2018-07-16T18:53:41.735Z,930.35
2018-07-16T18:55:13.540Z,930.33
2018-07-16T18:56:45.024Z,930.34
2018-07-16T18:58:16.486Z,930.37
2018-07-16T18:59:48.110Z,930.41
2018-07-16T19:02:51.445Z,930.36
2018-07-16T19:04:22.821Z,930.34
2018-07-16T19:05:54.431Z,930.32
2018-07-16T19:07:25.988Z,930.38
2018-07-16T19:10:29.358Z,930.38
2018-07-16T19:13:32.325Z,930.40
2018-07-16T19:15:03.908Z,930.39
2018-07-16T19:16:35.592Z,930.38
2018-07-16T19:18:07.072Z,930.38
2018-07-16T19:19:38.655Z,930.40
2018-07-16T19:21:10.238Z,930.38
2018-07-16T19:22:41.820Z,930.39
2018-07-16T19:24:13.410Z,930.41
2018-07-16T19:25:45.191Z,930.39
2018-07-16T19:27:16.572Z,930.38
2018-07-16T19:28:48.153Z,930.39
2018-07-16T19:30:19.737Z,930.35
2018-07-16T19:31:51.319Z,930.36
2018-07-16T19:33:23.205Z,930.39
2018-07-16T19:34:54.586Z,930.38
2018-07-16T19:36:26.077Z,930.41
2018-07-16T19:37:57.649Z,930.44
2018-07-16T19:39:29.252Z,930.41
2018-07-16T19:41:01.120Z,930.41
2018-07-16T19:42:32.397Z,930.48
2018-07-16T19:44:03.978Z,930.43
2018-07-16T19:45:35.647Z,930.42
2018-07-16T19:47:07.142Z,930.44
2018-07-16T19:50:10.305Z,930.46
2018-07-16T19:51:41.886Z,930.41
2018-07-16T19:53:13.567Z,930.43
2018-07-16T19:54:45.050Z,930.45
2018-07-16T19:57:48.219Z,930.52
2018-07-16T19:59:19.791Z,930.51
2018-07-16T20:00:51.372Z,930.52
2018-07-16T20:02:22.952Z,930.60
2018-07-16T20:03:54.761Z,930.59
2018-07-16T20:05:26.116Z,930.60
2018-07-16T20:06:57.700Z,930.60
2018-07-16T20:08:29.280Z,930.65
2018-07-16T20:10:00.938Z,930.62
2018-07-16T20:11:32.533Z,930.63
2018-07-16T20:13:04.099Z,930.70
2018-07-16T20:14:35.592Z,930.70
2018-07-16T20:16:07.172Z,930.74
2018-07-16T20:17:38.752Z,930.74
2018-07-16T20:19:10.332Z,930.81
2018-07-16T20:20:41.912Z,930.79
2018-07-16T20:22:13.489Z,930.76
2018-07-16T20:23:45.134Z,930.79
2018-07-16T20:25:16.649Z,930.77